createdAt,value
2023-04-20T00:01:37.327Z,72.51
2023-04-20T00:04:05.635Z,72.96
2023-04-20T00:06:34.331Z,73.38
2023-04-20T00:09:02.405Z,73.55
2023-04-20T00:11:31.836Z,73.34
2023-04-20T00:13:59.765Z,73.48
2023-04-20T00:16:27.700Z,73.93
2023-04-20T00:18:55.783Z,73.10
2023-04-20T00:21:24.237Z,73.93
2023-04-20T00:23:52.476Z,73.25
2023-04-20T00:26:21.532Z,73.97
2023-04-20T00:28:55.079Z,75.04
2023-04-20T00:31:23.151Z,75.09
2023-04-20T00:33:51.132Z,75.42
2023-04-20T00:36:18.917Z,75.89
2023-04-20T00:38:47.217Z,75.82
2023-04-20T00:41:15.084Z,75.67
2023-04-20T00:43:51.215Z,75.99
2023-04-20T00:46:20.887Z,75.91
2023-04-20T00:48:49.420Z,76.80
2023-04-20T00:51:17.517Z,76.97
2023-04-20T00:53:45.828Z,76.33
2023-04-20T00:56:15.096Z,76.05
2023-04-20T00:58:44.100Z,76.28
2023-04-20T01:01:12.805Z,76.43
2023-04-20T01:03:42.570Z,76.90
2023-04-20T01:06:11.165Z,77.59
2023-04-20T01:08:47.417Z,78.02
2023-04-20T01:11:15.736Z,77.59
2023-04-20T01:13:44.259Z,78.03
2023-04-20T01:16:12.840Z,77.76
2023-04-20T01:18:47.203Z,77.93
2023-04-20T01:21:16.739Z,78.12
2023-04-20T01:23:47.322Z,78.24
2023-04-20T01:26:17.260Z,77.82
2023-04-20T01:28:46.172Z,78.79
2023-04-20T01:31:17.002Z,79.20
2023-04-20T01:33:45.299Z,79.09
2023-04-20T01:36:27.085Z,80.07
2023-04-20T01:38:56.396Z,79.53
2023-04-20T01:41:24.731Z,79.75
2023-04-20T01:43:52.632Z,80.91
2023-04-20T01:46:20.764Z,79.94
2023-04-20T01:48:48.597Z,79.82
2023-04-20T01:51:16.723Z,80.55
2023-04-20T01:53:44.583Z,80.25
2023-04-20T01:56:13.828Z,80.28
2023-04-20T01:58:41.776Z,79.66
2023-04-20T02:01:09.663Z,79.68
2023-04-20T02:03:37.861Z,80.77
2023-04-20T02:06:06.559Z,79.92
2023-04-20T02:08:35.572Z,80.80
2023-04-20T02:11:03.746Z,80.51
2023-04-20T02:13:33.743Z,80.03
2023-04-20T02:16:01.586Z,80.28
2023-04-20T02:18:30.151Z,79.44
2023-04-20T02:20:58.066Z,79.69
2023-04-20T02:23:26.097Z,80.35
2023-04-20T02:25:56.787Z,80.91
2023-04-20T02:28:24.756Z,80.95
2023-04-20T02:30:54.018Z,80.79
2023-04-20T02:33:22.871Z,80.35
2023-04-20T02:35:54.484Z,79.90
2023-04-20T02:38:22.490Z,80.56
2023-04-20T02:40:50.895Z,80.76
2023-04-20T02:43:18.820Z,81.08
2023-04-20T02:45:47.352Z,80.70
2023-04-20T02:48:17.153Z,80.81
2023-04-20T02:50:45.891Z,81.81
2023-04-20T02:53:22.830Z,81.76
2023-04-20T02:55:58.262Z,81.60
2023-04-20T02:58:37.400Z,81.87
2023-04-20T03:01:28.155Z,82.07
2023-04-20T03:04:10.712Z,81.83
2023-04-20T03:06:45.290Z,82.27
2023-04-20T03:09:18.537Z,81.98
2023-04-20T03:12:09.544Z,82.28
2023-04-20T03:15:06.271Z,82.15
2023-04-20T03:17:52.626Z,82.09
2023-04-20T03:20:22.190Z,82.30
2023-04-20T03:22:50.186Z,82.64
2023-04-20T03:25:19.964Z,82.75
2023-04-20T03:28:08.301Z,83.23
2023-04-20T03:30:38.590Z,82.64
2023-04-20T03:33:15.037Z,83.49
2023-04-20T03:35:44.359Z,83.30
2023-04-20T03:38:12.385Z,83.64
2023-04-20T03:40:40.344Z,83.63
2023-04-20T03:43:08.421Z,83.85
2023-04-20T03:45:36.537Z,82.92
2023-04-20T03:48:04.961Z,82.96
2023-04-20T03:50:33.006Z,83.30
2023-04-20T03:53:02.574Z,83.87
2023-04-20T03:55:31.205Z,83.25
2023-04-20T03:58:06.917Z,82.78
2023-04-20T04:00:45.843Z,83.68
2023-04-20T04:03:15.384Z,83.19
2023-04-20T04:05:43.669Z,83.26
2023-04-20T04:08:12.937Z,82.14
2023-04-20T04:10:40.938Z,82.76
2023-04-20T04:13:08.826Z,82.36
2023-04-20T04:15:36.695Z,82.92
2023-04-20T04:18:10.467Z,83.92
2023-04-20T04:20:40.133Z,82.75
2023-04-20T04:23:09.793Z,83.24
2023-04-20T04:25:46.095Z,83.39
2023-04-20T04:28:16.996Z,83.63
2023-04-20T04:30:56.163Z,82.84
2023-04-20T04:33:25.476Z,83.36
2023-04-20T04:35:55.462Z,83.00
2023-04-20T04:38:23.812Z,83.61
2023-04-20T04:40:53.895Z,83.42
2023-04-20T04:43:21.759Z,83.84
2023-04-20T04:46:00.432Z,84.39
2023-04-20T04:48:29.312Z,84.72
2023-04-20T04:50:57.220Z,84.09
2023-04-20T04:53:25.077Z,83.20
2023-04-20T04:55:54.368Z,83.48
2023-04-20T04:58:22.241Z,83.25
2023-04-20T05:00:50.231Z,84.08
2023-04-20T05:03:18.330Z,84.07
2023-04-20T05:05:46.402Z,83.97
2023-04-20T05:08:14.201Z,84.40
2023-04-20T05:10:42.064Z,84.59
2023-04-20T05:13:11.217Z,83.79
2023-04-20T05:15:39.051Z,83.61
2023-04-20T05:18:07.244Z,83.35
2023-04-20T05:20:35.145Z,83.11
2023-04-20T05:23:02.976Z,83.93
2023-04-20T05:25:31.275Z,83.89
2023-04-20T05:27:59.120Z,83.92
2023-04-20T05:30:28.365Z,83.19
2023-04-20T05:32:56.281Z,83.11
2023-04-20T05:35:24.145Z,83.39
2023-04-20T05:37:51.912Z,83.17
2023-04-20T05:40:19.882Z,83.09
2023-04-20T05:42:47.745Z,82.67
2023-04-20T05:45:15.711Z,83.57
2023-04-20T05:47:53.562Z,83.46
2023-04-20T05:50:21.864Z,82.66
2023-04-20T05:52:50.088Z,82.81
2023-04-20T05:55:19.932Z,82.82
2023-04-20T05:57:49.401Z,82.56
2023-04-20T06:00:18.023Z,82.02
2023-04-20T06:02:47.361Z,81.73
2023-04-20T06:05:15.615Z,80.92
2023-04-20T06:07:44.112Z,80.71
2023-04-20T06:10:12.302Z,80.03
2023-04-20T06:12:40.279Z,79.65
2023-04-20T06:15:10.860Z,79.30
2023-04-20T06:17:41.123Z,79.66
2023-04-20T06:20:12.611Z,79.21
2023-04-20T06:22:45.338Z,79.22
2023-04-20T06:25:13.582Z,78.78
2023-04-20T06:27:41.432Z,78.40
2023-04-20T06:30:10.659Z,78.15
2023-04-20T06:32:38.932Z,76.45
2023-04-20T06:35:08.474Z,76.68
2023-04-20T06:37:37.729Z,76.81
2023-04-20T06:40:08.447Z,76.35
2023-04-20T06:42:37.125Z,76.66
2023-04-20T06:45:05.966Z,76.07
2023-04-20T06:47:34.075Z,75.21
2023-04-20T06:50:02.973Z,75.62
2023-04-20T06:52:31.196Z,76.15
2023-04-20T06:55:00.750Z,74.74
2023-04-20T06:57:28.532Z,75.31
2023-04-20T06:59:56.418Z,75.56
2023-04-20T07:02:24.310Z,74.44
2023-04-20T07:04:52.290Z,74.37
2023-04-20T07:07:20.176Z,73.70
2023-04-20T07:09:48.009Z,73.30
2023-04-20T07:12:17.201Z,73.51
2023-04-20T07:14:45.137Z,73.73
2023-04-20T07:17:13.044Z,73.82
2023-04-20T07:19:41.094Z,72.23
2023-04-20T07:22:08.962Z,71.86
2023-04-20T07:24:36.829Z,73.08
2023-04-20T07:27:05.651Z,73.93
2023-04-20T07:29:34.862Z,71.91
2023-04-20T07:32:02.765Z,72.54
2023-04-20T07:34:30.779Z,71.70
2023-04-20T07:36:58.728Z,71.61
2023-04-20T07:39:28.700Z,71.16
2023-04-20T07:41:56.852Z,71.12
2023-04-20T07:44:24.855Z,71.66
2023-04-20T07:46:54.850Z,71.11
2023-04-20T07:49:22.717Z,71.44
2023-04-20T07:51:50.622Z,71.79
2023-04-20T07:54:18.569Z,72.55
2023-04-20T07:56:46.377Z,71.71
2023-04-20T07:59:14.350Z,71.56
2023-04-20T08:01:42.389Z,71.06
2023-04-20T08:04:11.800Z,71.45
2023-04-20T08:06:39.826Z,70.44
2023-04-20T08:09:10.357Z,70.49
2023-04-20T08:11:39.779Z,71.39
2023-04-20T08:14:07.724Z,70.47
2023-04-20T08:16:35.729Z,70.19
2023-04-20T08:19:09.966Z,69.78
2023-04-20T08:21:39.743Z,69.93
2023-04-20T08:24:08.736Z,69.82
2023-04-20T08:26:36.808Z,69.51
2023-04-20T08:29:05.627Z,69.72
2023-04-20T08:31:33.679Z,71.16
2023-04-20T08:34:01.587Z,71.16
2023-04-20T08:36:29.547Z,71.49
2023-04-20T08:39:07.701Z,72.46
2023-04-20T08:41:35.791Z,73.63
2023-04-20T08:44:03.974Z,73.57
2023-04-20T08:46:34.249Z,74.04
2023-04-20T08:49:03.493Z,73.43
2023-04-20T08:51:32.565Z,73.91
2023-04-20T08:54:06.017Z,74.40
2023-04-20T08:56:36.266Z,75.07
2023-04-20T08:59:05.440Z,76.07
2023-04-20T09:01:36.365Z,76.03
2023-04-20T09:04:16.055Z,76.69
2023-04-20T09:06:49.082Z,77.60
2023-04-20T09:09:18.661Z,78.47
2023-04-20T09:11:47.651Z,78.32
2023-04-20T09:14:18.317Z,77.75
2023-04-20T09:16:51.958Z,80.30
2023-04-20T09:19:24.627Z,80.16
2023-04-20T09:21:54.193Z,81.74
2023-04-20T09:24:25.108Z,82.45
2023-04-20T09:26:53.129Z,84.30
2023-04-20T09:29:22.631Z,83.21
2023-04-20T09:31:51.801Z,84.61
2023-04-20T09:34:20.493Z,85.06
2023-04-20T09:36:50.703Z,86.35
2023-04-20T09:39:19.699Z,85.49
2023-04-20T09:41:50.240Z,85.61
2023-04-20T09:44:19.336Z,86.20
2023-04-20T09:46:48.087Z,86.66
2023-04-20T09:49:16.204Z,86.24
2023-04-20T09:51:46.106Z,85.11
2023-04-20T09:54:16.174Z,85.27
2023-04-20T09:56:44.554Z,86.12
2023-04-20T09:59:14.936Z,86.27
2023-04-20T10:01:42.867Z,85.29
2023-04-20T10:04:14.129Z,87.82
2023-04-20T10:06:54.626Z,85.84
2023-04-20T10:09:24.610Z,85.13
2023-04-20T10:11:55.118Z,85.59
2023-04-20T10:14:26.654Z,86.32
2023-04-20T10:17:02.400Z,86.10
2023-04-20T10:19:41.133Z,85.22
2023-04-20T10:22:10.462Z,86.27
2023-04-20T10:24:39.394Z,85.91
2023-04-20T10:27:17.921Z,85.34
2023-04-20T10:29:47.587Z,86.63
2023-04-20T10:32:26.473Z,86.55
2023-04-20T10:35:06.352Z,85.70
2023-04-20T10:37:35.237Z,84.05
2023-04-20T10:40:06.877Z,85.41
2023-04-20T10:42:43.307Z,84.96
2023-04-20T10:45:13.489Z,85.80
2023-04-20T10:47:41.964Z,83.85
2023-04-20T10:50:12.593Z,85.33
2023-04-20T10:52:43.029Z,85.00
2023-04-20T10:55:20.570Z,84.57
2023-04-20T10:57:48.972Z,86.26
2023-04-20T11:00:20.817Z,86.02
2023-04-20T11:02:50.344Z,85.82
2023-04-20T11:05:20.323Z,85.31
2023-04-20T11:07:51.818Z,85.75
2023-04-20T11:10:20.060Z,86.62
2023-04-20T11:12:48.155Z,86.40
2023-04-20T11:15:16.431Z,87.61
2023-04-20T11:17:46.892Z,87.83
2023-04-20T11:20:18.544Z,85.98
2023-04-20T11:22:57.493Z,86.80
2023-04-20T11:25:25.487Z,86.82
2023-04-20T11:28:28.053Z,87.67
2023-04-20T11:30:56.417Z,90.15
2023-04-20T11:33:29.256Z,88.12
2023-04-20T11:35:58.854Z,86.73
2023-04-20T11:38:31.593Z,86.43
2023-04-20T11:41:04.646Z,86.16
2023-04-20T11:43:32.909Z,86.59
2023-04-20T11:46:01.983Z,86.83
2023-04-20T11:48:32.973Z,86.23
2023-04-20T11:51:01.027Z,87.30
2023-04-20T11:53:29.001Z,87.29
2023-04-20T11:55:56.921Z,86.69
2023-04-20T11:58:24.868Z,87.35
2023-04-20T12:00:52.770Z,86.26
2023-04-20T12:03:20.886Z,87.61
2023-04-20T12:05:50.439Z,85.10
2023-04-20T12:08:18.871Z,85.53
2023-04-20T12:10:47.177Z,88.01
2023-04-20T12:13:15.768Z,87.14
2023-04-20T12:15:43.728Z,86.09
2023-04-20T12:18:11.956Z,86.74
2023-04-20T12:20:39.972Z,87.11
2023-04-20T12:23:09.196Z,87.84
2023-04-20T12:25:37.202Z,88.10
2023-04-20T12:28:07.343Z,87.14
2023-04-20T12:30:36.252Z,85.26
2023-04-20T12:33:04.924Z,86.87
2023-04-20T12:35:32.965Z,86.73
2023-04-20T12:38:01.250Z,88.64
2023-04-20T12:40:30.748Z,87.48
2023-04-20T12:42:58.776Z,87.27
2023-04-20T12:45:27.045Z,87.63
2023-04-20T12:47:56.716Z,86.61
2023-04-20T12:50:26.373Z,87.87
2023-04-20T12:52:56.101Z,87.69
2023-04-20T12:55:24.325Z,88.44
2023-04-20T12:57:53.740Z,89.32
2023-04-20T13:00:21.833Z,88.12
2023-04-20T13:02:49.978Z,88.31
2023-04-20T13:05:18.772Z,86.97
2023-04-20T13:07:46.890Z,88.14
2023-04-20T13:10:14.841Z,88.79
2023-04-20T13:12:42.820Z,89.78
2023-04-20T13:15:13.152Z,89.78
2023-04-20T13:17:41.464Z,90.11
2023-04-20T13:20:10.330Z,88.80
2023-04-20T13:22:50.425Z,91.64
2023-04-20T13:25:22.631Z,91.17
2023-04-20T13:27:50.772Z,89.68
2023-04-20T13:30:21.363Z,90.99
2023-04-20T13:32:51.389Z,90.64
2023-04-20T13:35:20.071Z,92.15
2023-04-20T13:37:48.462Z,91.34
2023-04-20T13:40:16.693Z,91.71
2023-04-20T13:42:44.876Z,91.32
2023-04-20T13:45:13.469Z,91.05
2023-04-20T13:47:43.127Z,91.46
2023-04-20T13:50:11.973Z,93.11
2023-04-20T13:52:40.103Z,92.22
2023-04-20T13:55:08.774Z,92.10
2023-04-20T13:57:37.095Z,92.31
2023-04-20T14:00:06.462Z,90.89
2023-04-20T14:02:35.116Z,90.45
2023-04-20T14:05:06.320Z,91.60
2023-04-20T14:07:34.604Z,91.49
2023-04-20T14:10:03.234Z,90.96
2023-04-20T14:12:31.423Z,90.46
2023-04-20T14:15:00.578Z,90.72
2023-04-20T14:17:29.049Z,91.74
2023-04-20T14:19:57.236Z,91.64
2023-04-20T14:22:26.835Z,91.04
2023-04-20T14:24:54.913Z,90.79
2023-04-20T14:27:22.722Z,91.53
2023-04-20T14:29:51.487Z,91.38
2023-04-20T14:32:19.870Z,91.80
2023-04-20T14:34:47.688Z,90.55
2023-04-20T14:37:15.673Z,91.06
2023-04-20T14:39:45.083Z,92.58
2023-04-20T14:42:14.240Z,91.41
2023-04-20T14:44:42.083Z,92.12
2023-04-20T14:47:10.536Z,91.99
2023-04-20T14:49:38.401Z,93.79
2023-04-20T14:52:06.968Z,94.33
2023-04-20T14:54:35.120Z,93.29
2023-04-20T14:57:04.346Z,94.38
2023-04-20T14:59:33.815Z,93.76
2023-04-20T15:02:03.426Z,94.04
2023-04-20T15:04:31.804Z,94.40
2023-04-20T15:06:59.804Z,93.64
2023-04-20T15:09:27.774Z,92.58
2023-04-20T15:11:56.609Z,92.41
2023-04-20T15:14:25.915Z,95.29
2023-04-20T15:16:53.947Z,93.93
2023-04-20T15:19:22.624Z,93.77
2023-04-20T15:21:50.886Z,94.46
2023-04-20T15:24:18.791Z,95.17
2023-04-20T15:26:46.708Z,94.54
2023-04-20T15:29:14.511Z,94.88
2023-04-20T15:31:45.980Z,94.23
2023-04-20T15:34:15.437Z,95.06
2023-04-20T15:36:43.994Z,95.45
2023-04-20T15:39:12.398Z,95.35
2023-04-20T15:41:40.211Z,94.74
2023-04-20T15:44:08.084Z,94.46
2023-04-20T15:46:37.079Z,93.70
2023-04-20T15:49:06.351Z,94.36
2023-04-20T15:51:34.288Z,94.08
2023-04-20T15:54:02.152Z,92.83
2023-04-20T15:56:30.035Z,92.92
2023-04-20T15:58:57.879Z,94.00
2023-04-20T16:01:25.928Z,93.80
2023-04-20T16:03:54.114Z,93.02
2023-04-20T16:06:24.159Z,94.30
2023-04-20T16:08:54.050Z,93.32
2023-04-20T16:11:22.237Z,94.56
2023-04-20T16:13:50.175Z,94.31
2023-04-20T16:16:18.205Z,94.15
2023-04-20T16:18:45.993Z,94.68
2023-04-20T16:21:13.811Z,94.10
2023-04-20T16:23:43.098Z,94.81
2023-04-20T16:26:11.259Z,93.49
2023-04-20T16:28:39.234Z,94.47
2023-04-20T16:31:07.340Z,94.74
2023-04-20T16:33:37.312Z,93.81
2023-04-20T16:36:05.903Z,93.99
2023-04-20T16:38:33.771Z,93.94
2023-04-20T16:41:03.096Z,94.21
2023-04-20T16:43:31.467Z,94.62
2023-04-20T16:45:59.960Z,94.74
2023-04-20T16:48:27.905Z,94.66
2023-04-20T16:50:55.866Z,95.46
2023-04-20T16:53:23.993Z,95.48
2023-04-20T16:55:52.149Z,95.51
2023-04-20T16:58:21.576Z,95.45
2023-04-20T17:00:50.089Z,95.15
2023-04-20T17:03:18.459Z,96.69
2023-04-20T17:05:46.922Z,95.30
2023-04-20T17:08:14.849Z,95.80
2023-04-20T17:10:43.120Z,95.54
2023-04-20T17:13:10.930Z,95.56
2023-04-20T17:15:42.632Z,95.35
2023-04-20T17:18:10.502Z,95.03
2023-04-20T17:20:38.660Z,95.16
2023-04-20T17:23:06.495Z,94.15
2023-04-20T17:25:35.079Z,94.54
2023-04-20T17:28:03.603Z,95.08
2023-04-20T17:30:31.531Z,95.35
2023-04-20T17:33:00.781Z,94.41
2023-04-20T17:35:28.723Z,95.44
2023-04-20T17:37:57.002Z,95.49
2023-04-20T17:40:24.919Z,94.30
2023-04-20T17:42:52.915Z,95.70
2023-04-20T17:45:20.938Z,95.40
2023-04-20T17:47:48.775Z,95.63
2023-04-20T17:50:18.277Z,94.97
2023-04-20T17:52:46.277Z,94.84
2023-04-20T17:55:14.260Z,95.07
2023-04-20T17:57:42.028Z,94.14
2023-04-20T18:00:11.945Z,95.86
2023-04-20T18:02:40.653Z,93.76
2023-04-20T18:05:09.692Z,94.05
2023-04-20T18:07:38.986Z,94.30
2023-04-20T18:10:08.181Z,94.40
2023-04-20T18:12:36.171Z,94.94
2023-04-20T18:15:05.563Z,94.22
2023-04-20T18:17:35.529Z,94.20
2023-04-20T18:20:05.613Z,94.15
2023-04-20T18:22:34.717Z,94.57
2023-04-20T18:25:04.052Z,94.83
2023-04-20T18:27:32.479Z,94.41
2023-04-20T18:30:00.686Z,94.68
2023-04-20T18:32:30.961Z,94.55
2023-04-20T18:35:00.476Z,94.45
2023-04-20T18:37:28.501Z,95.22
2023-04-20T18:39:56.879Z,93.48
2023-04-20T18:42:26.304Z,94.81
2023-04-20T18:44:55.879Z,94.89
2023-04-20T18:47:25.499Z,95.33
2023-04-20T18:49:53.724Z,94.41
2023-04-20T18:52:21.877Z,94.63
2023-04-20T18:54:49.790Z,95.69
2023-04-20T18:57:17.943Z,95.22
2023-04-20T18:59:47.149Z,95.05
2023-04-20T19:02:15.029Z,95.61
2023-04-20T19:04:43.885Z,95.56
2023-04-20T19:07:11.766Z,95.55
2023-04-20T19:09:39.888Z,95.64
2023-04-20T19:12:07.896Z,95.15
2023-04-20T19:14:35.798Z,95.71
2023-04-20T19:17:07.896Z,95.21
2023-04-20T19:19:36.021Z,95.55
2023-04-20T19:22:04.408Z,95.39
2023-04-20T19:24:32.863Z,95.59
2023-04-20T19:27:02.259Z,95.09
2023-04-20T19:29:30.154Z,95.59
2023-04-20T19:31:58.002Z,95.66
2023-04-20T19:34:27.318Z,96.04
2023-04-20T19:36:55.550Z,96.21
2023-04-20T19:39:23.368Z,95.77
2023-04-20T19:41:51.407Z,96.65
2023-04-20T19:44:19.914Z,97.21
2023-04-20T19:46:49.962Z,96.72
2023-04-20T19:49:18.193Z,96.37
2023-04-20T19:51:47.805Z,96.30
2023-04-20T19:54:16.617Z,96.69
2023-04-20T19:56:44.556Z,97.29
2023-04-20T19:59:12.541Z,96.30
2023-04-20T20:01:40.480Z,96.91
2023-04-20T20:04:08.643Z,96.56
2023-04-20T20:06:36.699Z,95.95
2023-04-20T20:09:06.120Z,95.97
2023-04-20T20:11:34.244Z,95.88
2023-04-20T20:14:02.081Z,95.79
2023-04-20T20:16:30.546Z,95.60
2023-04-20T20:18:59.780Z,95.62
2023-04-20T20:21:27.686Z,95.52
2023-04-20T20:23:55.597Z,95.43
2023-04-20T20:26:24.964Z,95.78
2023-04-20T20:28:53.279Z,95.76
2023-04-20T20:31:21.744Z,96.24
2023-04-20T20:33:49.892Z,95.51
2023-04-20T20:36:17.957Z,96.01
2023-04-20T20:38:45.899Z,96.21
2023-04-20T20:41:14.244Z,95.57
2023-04-20T20:43:43.509Z,95.46
2023-04-20T20:46:11.494Z,95.95
2023-04-20T20:48:39.288Z,95.83
2023-04-20T20:51:07.316Z,95.83
2023-04-20T20:53:35.288Z,95.94
2023-04-20T20:56:03.156Z,96.58
2023-04-20T20:58:31.184Z,96.27
2023-04-20T21:01:00.549Z,96.47
2023-04-20T21:03:28.701Z,95.99
2023-04-20T21:05:56.626Z,96.86
2023-04-20T21:08:24.546Z,96.39
2023-04-20T21:10:52.448Z,96.58
2023-04-20T21:13:21.909Z,96.53
2023-04-20T21:15:49.797Z,96.02
2023-04-20T21:18:19.116Z,95.23
2023-04-20T21:20:46.901Z,96.01
2023-04-20T21:23:14.746Z,96.48
2023-04-20T21:25:42.632Z,96.19
2023-04-20T21:28:10.530Z,96.43
2023-04-20T21:30:38.320Z,96.32
2023-04-20T21:33:06.259Z,95.77
2023-04-20T21:35:35.555Z,96.15
2023-04-20T21:38:04.716Z,96.16
2023-04-20T21:40:34.171Z,96.23
2023-04-20T21:43:02.013Z,95.51
2023-04-20T21:45:29.854Z,95.42
2023-04-20T21:47:57.676Z,95.38
2023-04-20T21:50:27.081Z,96.21
2023-04-20T21:52:56.384Z,95.89
2023-04-20T21:55:24.218Z,95.83
2023-04-20T21:57:52.072Z,95.52
2023-04-20T22:00:20.224Z,95.78
2023-04-20T22:02:49.419Z,95.42
2023-04-20T22:05:18.349Z,95.71
2023-04-20T22:07:46.682Z,95.72
2023-04-20T22:10:16.010Z,95.83
2023-04-20T22:12:44.367Z,95.25
2023-04-20T22:15:14.762Z,95.83
2023-04-20T22:17:45.448Z,95.56
2023-04-20T22:20:15.659Z,95.42
2023-04-20T22:22:43.745Z,95.06
2023-04-20T22:25:11.674Z,95.13
2023-04-20T22:27:41.341Z,94.75
2023-04-20T22:30:09.931Z,95.08
2023-04-20T22:32:38.450Z,94.68
2023-04-20T22:35:07.776Z,94.30
2023-04-20T22:37:35.777Z,94.46
2023-04-20T22:40:05.869Z,94.50
2023-04-20T22:42:34.790Z,94.80
2023-04-20T22:45:04.093Z,94.55
2023-04-20T22:47:32.407Z,94.62
2023-04-20T22:50:00.348Z,95.21
2023-04-20T22:52:28.192Z,94.93
2023-04-20T22:54:56.060Z,95.07
2023-04-20T22:57:24.068Z,95.16
2023-04-20T22:59:51.899Z,95.27
2023-04-20T23:02:21.199Z,95.73
2023-04-20T23:04:49.146Z,96.30
2023-04-20T23:07:17.591Z,96.36
2023-04-20T23:09:45.486Z,96.55
2023-04-20T23:12:13.351Z,96.61
2023-04-20T23:14:42.738Z,96.75
2023-04-20T23:17:11.058Z,97.13
2023-04-20T23:19:40.441Z,97.00
2023-04-20T23:22:09.774Z,97.43
2023-04-20T23:24:37.670Z,96.92
2023-04-20T23:27:06.041Z,96.65
2023-04-20T23:29:33.976Z,97.26
2023-04-20T23:32:02.287Z,98.02
2023-04-20T23:34:30.161Z,97.83
2023-04-20T23:36:59.739Z,97.26
2023-04-20T23:39:27.736Z,96.67
2023-04-20T23:41:56.162Z,96.96
2023-04-20T23:44:24.130Z,96.58
2023-04-20T23:46:51.955Z,96.33
2023-04-20T23:49:19.921Z,95.93
2023-04-20T23:51:47.789Z,95.91
2023-04-20T23:54:17.071Z,96.07
2023-04-20T23:56:44.925Z,96.06
2023-04-20T23:59:12.944Z,96.31
